sensor_id;sensor_type;location;lat;lon;timestamp;temperature;humidity
59973;DHT22;55298;-36.624;-64.282;2023-05-28T00:00:11;7.20;57.90
59973;DHT22;55298;-36.624;-64.282;2023-05-28T00:02:40;7.20;57.90
59973;DHT22;55298;-36.624;-64.282;2023-05-28T00:05:10;7.10;57.30
59973;DHT22;55298;-36.624;-64.282;2023-05-28T00:07:38;7.20;57.30
59973;DHT22;55298;-36.624;-64.282;2023-05-28T00:10:09;7.10;56.30
59973;DHT22;55298;-36.624;-64.282;2023-05-28T00:12:41;7.10;56.70
59973;DHT22;55298;-36.624;-64.282;2023-05-28T00:15:10;7.00;56.30
59973;DHT22;55298;-36.624;-64.282;2023-05-28T00:17:41;7.00;56.70
59973;DHT22;55298;-36.624;-64.282;2023-05-28T00:20:10;7.00;56.90
59973;DHT22;55298;-36.624;-64.282;2023-05-28T00:22:48;6.90;57.10
59973;DHT22;55298;-36.624;-64.282;2023-05-28T00:28:42;6.90;56.70
59973;DHT22;55298;-36.624;-64.282;2023-05-28T00:31:11;6.80;56.30
59973;DHT22;55298;-36.624;-64.282;2023-05-28T00:33:39;6.70;56.20
59973;DHT22;55298;-36.624;-64.282;2023-05-28T00:36:13;6.70;56.20
59973;DHT22;55298;-36.624;-64.282;2023-05-28T00:38:45;6.70;56.80
59973;DHT22;55298;-36.624;-64.282;2023-05-28T00:41:20;6.60;56.60
59973;DHT22;55298;-36.624;-64.282;2023-05-28T00:43:52;6.50;57.10
59973;DHT22;55298;-36.624;-64.282;2023-05-28T00:48:51;6.50;57.30
59973;DHT22;55298;-36.624;-64.282;2023-05-28T00:51:20;6.50;57.80
59973;DHT22;55298;-36.624;-64.282;2023-05-28T00:56:17;6.50;56.60
59973;DHT22;55298;-36.624;-64.282;2023-05-28T00:58:48;6.30;56.10
59973;DHT22;55298;-36.624;-64.282;2023-05-28T01:01:19;6.30;55.90
59973;DHT22;55298;-36.624;-64.282;2023-05-28T01:03:48;6.40;55.50
59973;DHT22;55298;-36.624;-64.282;2023-05-28T01:06:17;5.40;55.90
59973;DHT22;55298;-36.624;-64.282;2023-05-28T01:08:49;6.40;56.30
59973;DHT22;55298;-36.624;-64.282;2023-05-28T01:11:28;6.40;56.40
59973;DHT22;55298;-36.624;-64.282;2023-05-28T01:14:07;6.30;55.70
59973;DHT22;55298;-36.624;-64.282;2023-05-28T01:16:45;5.10;55.20
59973;DHT22;55298;-36.624;-64.282;2023-05-28T01:19:22;6.20;55.50
59973;DHT22;55298;-36.624;-64.282;2023-05-28T01:22:03;6.20;55.30
59973;DHT22;55298;-36.624;-64.282;2023-05-28T01:24:34;6.20;55.80
59973;DHT22;55298;-36.624;-64.282;2023-05-28T01:27:08;6.20;56.30
59973;DHT22;55298;-36.624;-64.282;2023-05-28T01:29:37;6.10;56.10
59973;DHT22;55298;-36.624;-64.282;2023-05-28T01:32:07;6.10;56.30
59973;DHT22;55298;-36.624;-64.282;2023-05-28T01:34:42;6.10;55.80
59973;DHT22;55298;-36.624;-64.282;2023-05-28T01:37:36;6.00;56.90
59973;DHT22;55298;-36.624;-64.282;2023-05-28T01:40:26;6.00;57.30
59973;DHT22;55298;-36.624;-64.282;2023-05-28T01:42:55;5.90;57.10
59973;DHT22;55298;-36.624;-64.282;2023-05-28T01:45:25;5.90;57.00
59973;DHT22;55298;-36.624;-64.282;2023-05-28T01:47:54;5.80;57.10
59973;DHT22;55298;-36.624;-64.282;2023-05-28T01:50:23;5.80;57.20
59973;DHT22;55298;-36.624;-64.282;2023-05-28T01:52:53;5.80;56.90
59973;DHT22;55298;-36.624;-64.282;2023-05-28T01:55:26;5.80;57.50
59973;DHT22;55298;-36.624;-64.282;2023-05-28T01:57:54;5.80;57.10
59973;DHT22;55298;-36.624;-64.282;2023-05-28T02:00:22;5.70;57.50
59973;DHT22;55298;-36.624;-64.282;2023-05-28T02:02:52;5.70;57.80
59973;DHT22;55298;-36.624;-64.282;2023-05-28T02:05:20;5.70;57.70
59973;DHT22;55298;-36.624;-64.282;2023-05-28T02:07:47;5.60;58.00
59973;DHT22;55298;-36.624;-64.282;2023-05-28T02:10:18;5.60;57.80
59973;DHT22;55298;-36.624;-64.282;2023-05-28T02:12:49;5.60;57.70
59973;DHT22;55298;-36.624;-64.282;2023-05-28T02:15:39;5.60;58.20
59973;DHT22;55298;-36.624;-64.282;2023-05-28T02:18:07;5.50;57.40
59973;DHT22;55298;-36.624;-64.282;2023-05-28T02:20:37;5.50;58.60
59973;DHT22;55298;-36.624;-64.282;2023-05-28T02:23:05;5.40;58.60
59973;DHT22;55298;-36.624;-64.282;2023-05-28T02:25:33;5.40;58.60
59973;DHT22;55298;-36.624;-64.282;2023-05-28T02:28:02;5.40;58.80
59973;DHT22;55298;-36.624;-64.282;2023-05-28T02:30:30;5.40;59.80
59973;DHT22;55298;-36.624;-64.282;2023-05-28T02:32:58;5.30;59.80
59973;DHT22;55298;-36.624;-64.282;2023-05-28T02:35:26;5.40;59.00
59973;DHT22;55298;-36.624;-64.282;2023-05-28T02:37:54;5.30;59.00
59973;DHT22;55298;-36.624;-64.282;2023-05-28T02:40:22;5.40;59.60
59973;DHT22;55298;-36.624;-64.282;2023-05-28T02:42:50;5.20;59.20
59973;DHT22;55298;-36.624;-64.282;2023-05-28T02:45:19;4.10;58.90
59973;DHT22;55298;-36.624;-64.282;2023-05-28T02:47:48;5.20;59.20
59973;DHT22;55298;-36.624;-64.282;2023-05-28T02:52:44;5.10;59.20
59973;DHT22;55298;-36.624;-64.282;2023-05-28T02:55:12;5.10;59.20
59973;DHT22;55298;-36.624;-64.282;2023-05-28T02:57:40;5.10;58.80
59973;DHT22;55298;-36.624;-64.282;2023-05-28T03:00:08;5.10;59.30
59973;DHT22;55298;-36.624;-64.282;2023-05-28T03:02:37;5.00;58.50
59973;DHT22;55298;-36.624;-64.282;2023-05-28T03:05:06;5.00;58.80
59973;DHT22;55298;-36.624;-64.282;2023-05-28T03:07:34;3.90;59.00
59973;DHT22;55298;-36.624;-64.282;2023-05-28T03:10:03;5.00;59.30
59973;DHT22;55298;-36.624;-64.282;2023-05-28T03:12:32;5.00;58.40
59973;DHT22;55298;-36.624;-64.282;2023-05-28T03:15:00;6.70;60.20
59973;DHT22;55298;-36.624;-64.282;2023-05-28T03:17:28;4.90;59.50
59973;DHT22;55298;-36.624;-64.282;2023-05-28T03:19:56;4.80;59.40
59973;DHT22;55298;-36.624;-64.282;2023-05-28T03:22:24;4.80;59.70
59973;DHT22;55298;-36.624;-64.282;2023-05-28T03:24:52;4.80;59.20
59973;DHT22;55298;-36.624;-64.282;2023-05-28T03:27:20;4.80;59.20
59973;DHT22;55298;-36.624;-64.282;2023-05-28T03:29:48;5.00;59.90
59973;DHT22;55298;-36.624;-64.282;2023-05-28T03:32:16;4.80;59.60
59973;DHT22;55298;-36.624;-64.282;2023-05-28T03:34:44;4.80;59.20
59973;DHT22;55298;-36.624;-64.282;2023-05-28T03:37:14;4.80;59.60
59973;DHT22;55298;-36.624;-64.282;2023-05-28T03:39:43;4.80;61.00
59973;DHT22;55298;-36.624;-64.282;2023-05-28T03:42:11;3.80;61.10
59973;DHT22;55298;-36.624;-64.282;2023-05-28T03:44:40;4.50;61.10
59973;DHT22;55298;-36.624;-64.282;2023-05-28T03:47:09;4.70;60.20
59973;DHT22;55298;-36.624;-64.282;2023-05-28T03:52:05;4.70;60.50
59973;DHT22;55298;-36.624;-64.282;2023-05-28T03:54:34;4.70;60.30
59973;DHT22;55298;-36.624;-64.282;2023-05-28T03:57:02;4.70;60.10
59973;DHT22;55298;-36.624;-64.282;2023-05-28T03:59:30;5.50;62.10
59973;DHT22;55298;-36.624;-64.282;2023-05-28T04:01:58;4.70;60.20
59973;DHT22;55298;-36.624;-64.282;2023-05-28T04:06:53;4.60;61.00
59973;DHT22;55298;-36.624;-64.282;2023-05-28T04:09:21;4.60;61.00
59973;DHT22;55298;-36.624;-64.282;2023-05-28T04:11:49;4.60;61.00
59973;DHT22;55298;-36.624;-64.282;2023-05-28T04:14:17;4.90;62.40
59973;DHT22;55298;-36.624;-64.282;2023-05-28T04:16:48;4.50;63.70
59973;DHT22;55298;-36.624;-64.282;2023-05-28T04:19:16;4.50;62.80
59973;DHT22;55298;-36.624;-64.282;2023-05-28T04:21:55;4.50;63.10
59973;DHT22;55298;-36.624;-64.282;2023-05-28T04:24:30;4.50;63.00
59973;DHT22;55298;-36.624;-64.282;2023-05-28T04:29:35;4.40;62.70
59973;DHT22;55298;-36.624;-64.282;2023-05-28T04:32:04;4.40;62.90
59973;DHT22;55298;-36.624;-64.282;2023-05-28T04:34:35;4.40;63.80
59973;DHT22;55298;-36.624;-64.282;2023-05-28T04:37:04;4.40;63.60
59973;DHT22;55298;-36.624;-64.282;2023-05-28T04:39:32;4.40;64.20
59973;DHT22;55298;-36.624;-64.282;2023-05-28T04:42:00;4.40;64.20
59973;DHT22;55298;-36.624;-64.282;2023-05-28T04:44:31;4.40;64.90
59973;DHT22;55298;-36.624;-64.282;2023-05-28T04:47:29;4.20;64.00
59973;DHT22;55298;-36.624;-64.282;2023-05-28T04:49:58;4.30;64.50
59973;DHT22;55298;-36.624;-64.282;2023-05-28T04:52:26;6.60;67.00
59973;DHT22;55298;-36.624;-64.282;2023-05-28T04:55:25;5.60;66.00
59973;DHT22;55298;-36.624;-64.282;2023-05-28T04:58:49;4.10;64.80
59973;DHT22;55298;-36.624;-64.282;2023-05-28T05:06:59;4.10;65.70
59973;DHT22;55298;-36.624;-64.282;2023-05-28T05:09:30;4.00;65.70
59973;DHT22;55298;-36.624;-64.282;2023-05-28T05:14:27;4.00;65.90
59973;DHT22;55298;-36.624;-64.282;2023-05-28T05:16:56;4.00;66.30
59973;DHT22;55298;-36.624;-64.282;2023-05-28T05:19:24;6.10;67.00
59973;DHT22;55298;-36.624;-64.282;2023-05-28T05:21:56;3.90;65.10
59973;DHT22;55298;-36.624;-64.282;2023-05-28T05:24:27;4.00;65.10
59973;DHT22;55298;-36.624;-64.282;2023-05-28T05:26:55;4.00;64.60
59973;DHT22;55298;-36.624;-64.282;2023-05-28T05:29:23;3.90;64.50
59973;DHT22;55298;-36.624;-64.282;2023-05-28T05:31:51;4.00;64.60
59973;DHT22;55298;-36.624;-64.282;2023-05-28T05:39:23;4.00;64.00
59973;DHT22;55298;-36.624;-64.282;2023-05-28T05:45:09;4.00;64.30
59973;DHT22;55298;-36.624;-64.282;2023-05-28T05:48:03;3.90;64.50
59973;DHT22;55298;-36.624;-64.282;2023-05-28T05:50:31;3.90;64.70
59973;DHT22;55298;-36.624;-64.282;2023-05-28T05:52:59;3.90;64.10
59973;DHT22;55298;-36.624;-64.282;2023-05-28T05:55:32;3.80;64.40
59973;DHT22;55298;-36.624;-64.282;2023-05-28T06:00:30;3.80;65.70
59973;DHT22;55298;-36.624;-64.282;2023-05-28T06:03:01;3.80;65.60
59973;DHT22;55298;-36.624;-64.282;2023-05-28T06:05:33;3.80;65.70
59973;DHT22;55298;-36.624;-64.282;2023-05-28T06:08:02;3.70;66.20
59973;DHT22;55298;-36.624;-64.282;2023-05-28T06:10:30;3.70;66.20
59973;DHT22;55298;-36.624;-64.282;2023-05-28T06:12:59;3.70;66.40
59973;DHT22;55298;-36.624;-64.282;2023-05-28T06:15:29;3.70;66.00
59973;DHT22;55298;-36.624;-64.282;2023-05-28T06:17:58;3.70;66.20
59973;DHT22;55298;-36.624;-64.282;2023-05-28T06:20:27;3.70;66.10
59973;DHT22;55298;-36.624;-64.282;2023-05-28T06:22:55;3.70;66.60
59973;DHT22;55298;-36.624;-64.282;2023-05-28T06:25:24;3.70;67.20
59973;DHT22;55298;-36.624;-64.282;2023-05-28T06:28:27;3.70;67.20
59973;DHT22;55298;-36.624;-64.282;2023-05-28T06:31:19;3.60;67.30
59973;DHT22;55298;-36.624;-64.282;2023-05-28T06:36:15;3.50;68.50
59973;DHT22;55298;-36.624;-64.282;2023-05-28T06:38:44;3.60;68.80
59973;DHT22;55298;-36.624;-64.282;2023-05-28T06:41:12;3.50;68.90
59973;DHT22;55298;-36.624;-64.282;2023-05-28T06:43:50;3.50;68.60
59973;DHT22;55298;-36.624;-64.282;2023-05-28T06:46:18;3.50;68.80
59973;DHT22;55298;-36.624;-64.282;2023-05-28T06:48:48;3.60;68.90
59973;DHT22;55298;-36.624;-64.282;2023-05-28T06:51:19;3.60;69.00
59973;DHT22;55298;-36.624;-64.282;2023-05-28T06:53:47;3.60;68.90
59973;DHT22;55298;-36.624;-64.282;2023-05-28T06:56:20;3.60;69.20
59973;DHT22;55298;-36.624;-64.282;2023-05-28T06:58:50;3.60;70.00
59973;DHT22;55298;-36.624;-64.282;2023-05-28T07:01:18;3.50;68.70
59973;DHT22;55298;-36.624;-64.282;2023-05-28T07:03:46;3.50;69.10
59973;DHT22;55298;-36.624;-64.282;2023-05-28T07:06:14;3.50;69.80
59973;DHT22;55298;-36.624;-64.282;2023-05-28T07:08:42;3.50;69.60
59973;DHT22;55298;-36.624;-64.282;2023-05-28T07:11:12;3.50;70.90
59973;DHT22;55298;-36.624;-64.282;2023-05-28T07:13:42;3.40;70.80
59973;DHT22;55298;-36.624;-64.282;2023-05-28T07:16:10;3.40;71.50
59973;DHT22;55298;-36.624;-64.282;2023-05-28T07:18:37;3.40;71.70
59973;DHT22;55298;-36.624;-64.282;2023-05-28T07:21:05;3.30;71.30
59973;DHT22;55298;-36.624;-64.282;2023-05-28T07:23:33;3.30;71.50
59973;DHT22;55298;-36.624;-64.282;2023-05-28T07:26:01;3.40;71.50
59973;DHT22;55298;-36.624;-64.282;2023-05-28T07:28:29;3.30;71.50
59973;DHT22;55298;-36.624;-64.282;2023-05-28T07:30:57;3.30;72.20
59973;DHT22;55298;-36.624;-64.282;2023-05-28T07:33:24;3.30;71.60
59973;DHT22;55298;-36.624;-64.282;2023-05-28T07:35:52;3.30;71.30
59973;DHT22;55298;-36.624;-64.282;2023-05-28T07:38:20;3.30;71.10
59973;DHT22;55298;-36.624;-64.282;2023-05-28T07:40:49;3.30;71.00
59973;DHT22;55298;-36.624;-64.282;2023-05-28T07:43:17;3.30;70.60
59973;DHT22;55298;-36.624;-64.282;2023-05-28T07:45:45;3.30;71.20
59973;DHT22;55298;-36.624;-64.282;2023-05-28T07:48:12;3.30;70.40
59973;DHT22;55298;-36.624;-64.282;2023-05-28T07:50:40;3.30;71.60
59973;DHT22;55298;-36.624;-64.282;2023-05-28T07:53:08;3.20;72.00
59973;DHT22;55298;-36.624;-64.282;2023-05-28T07:55:36;3.20;72.00
59973;DHT22;55298;-36.624;-64.282;2023-05-28T07:58:04;3.30;72.00
59973;DHT22;55298;-36.624;-64.282;2023-05-28T08:00:32;3.20;71.90
59973;DHT22;55298;-36.624;-64.282;2023-05-28T08:03:03;3.20;71.10
59973;DHT22;55298;-36.624;-64.282;2023-05-28T08:05:31;3.20;70.80
59973;DHT22;55298;-36.624;-64.282;2023-05-28T08:08:00;3.20;71.10
59973;DHT22;55298;-36.624;-64.282;2023-05-28T08:10:28;3.20;71.80
59973;DHT22;55298;-36.624;-64.282;2023-05-28T08:12:56;3.20;72.20
59973;DHT22;55298;-36.624;-64.282;2023-05-28T08:15:24;3.20;72.00
59973;DHT22;55298;-36.624;-64.282;2023-05-28T08:17:51;3.20;71.80
59973;DHT22;55298;-36.624;-64.282;2023-05-28T08:20:19;3.20;72.50
59973;DHT22;55298;-36.624;-64.282;2023-05-28T08:22:49;3.20;72.20
59973;DHT22;55298;-36.624;-64.282;2023-05-28T08:25:17;3.10;72.80
59973;DHT22;55298;-36.624;-64.282;2023-05-28T08:27:45;3.20;72.70
59973;DHT22;55298;-36.624;-64.282;2023-05-28T08:30:13;3.20;72.20
59973;DHT22;55298;-36.624;-64.282;2023-05-28T08:32:41;3.20;72.00
59973;DHT22;55298;-36.624;-64.282;2023-05-28T08:35:09;3.20;72.50
59973;DHT22;55298;-36.624;-64.282;2023-05-28T08:37:38;3.10;72.30
59973;DHT22;55298;-36.624;-64.282;2023-05-28T08:40:08;3.00;71.60
59973;DHT22;55298;-36.624;-64.282;2023-05-28T08:42:37;3.00;71.00
59973;DHT22;55298;-36.624;-64.282;2023-05-28T08:45:05;3.20;71.00
59973;DHT22;55298;-36.624;-64.282;2023-05-28T08:47:33;3.20;71.70
59973;DHT22;55298;-36.624;-64.282;2023-05-28T08:50:06;3.20;71.40
59973;DHT22;55298;-36.624;-64.282;2023-05-28T08:52:37;3.20;72.00
59973;DHT22;55298;-36.624;-64.282;2023-05-28T08:55:05;3.10;72.20
59973;DHT22;55298;-36.624;-64.282;2023-05-28T08:57:33;3.10;72.30
59973;DHT22;55298;-36.624;-64.282;2023-05-28T09:00:03;3.10;72.40
59973;DHT22;55298;-36.624;-64.282;2023-05-28T09:02:36;3.00;72.00
59973;DHT22;55298;-36.624;-64.282;2023-05-28T09:05:06;3.10;72.60
59973;DHT22;55298;-36.624;-64.282;2023-05-28T09:07:35;3.10;73.00
59973;DHT22;55298;-36.624;-64.282;2023-05-28T09:10:03;3.10;72.70
59973;DHT22;55298;-36.624;-64.282;2023-05-28T09:12:31;3.10;72.40
59973;DHT22;55298;-36.624;-64.282;2023-05-28T09:14:59;3.10;72.40
59973;DHT22;55298;-36.624;-64.282;2023-05-28T09:17:34;3.10;73.00
59973;DHT22;55298;-36.624;-64.282;2023-05-28T09:20:11;3.00;72.80
59973;DHT22;55298;-36.624;-64.282;2023-05-28T09:22:43;3.10;73.00
59973;DHT22;55298;-36.624;-64.282;2023-05-28T09:25:11;3.00;72.30
59973;DHT22;55298;-36.624;-64.282;2023-05-28T09:27:42;3.00;73.00
59973;DHT22;55298;-36.624;-64.282;2023-05-28T09:30:12;3.00;73.40
59973;DHT22;55298;-36.624;-64.282;2023-05-28T09:32:40;3.00;73.40
59973;DHT22;55298;-36.624;-64.282;2023-05-28T09:35:08;3.10;73.30
59973;DHT22;55298;-36.624;-64.282;2023-05-28T09:37:38;3.10;73.70
59973;DHT22;55298;-36.624;-64.282;2023-05-28T09:40:08;3.10;73.20
59973;DHT22;55298;-36.624;-64.282;2023-05-28T09:42:38;3.10;73.90
59973;DHT22;55298;-36.624;-64.282;2023-05-28T09:45:11;3.10;73.80
59973;DHT22;55298;-36.624;-64.282;2023-05-28T09:47:46;3.10;73.70
59973;DHT22;55298;-36.624;-64.282;2023-05-28T09:50:14;3.10;73.90
59973;DHT22;55298;-36.624;-64.282;2023-05-28T09:52:44;3.10;73.90
59973;DHT22;55298;-36.624;-64.282;2023-05-28T09:55:17;3.10;74.10
59973;DHT22;55298;-36.624;-64.282;2023-05-28T09:58:00;3.10;73.70
59973;DHT22;55298;-36.624;-64.282;2023-05-28T10:00:33;3.10;73.70
59973;DHT22;55298;-36.624;-64.282;2023-05-28T10:05:52;3.10;72.90
59973;DHT22;55298;-36.624;-64.282;2023-05-28T10:08:25;3.10;73.60
59973;DHT22;55298;-36.624;-64.282;2023-05-28T10:10:54;3.10;72.60
59973;DHT22;55298;-36.624;-64.282;2023-05-28T10:13:22;3.10;73.20
59973;DHT22;55298;-36.624;-64.282;2023-05-28T10:15:51;3.20;72.70
59973;DHT22;55298;-36.624;-64.282;2023-05-28T10:18:19;3.10;72.90
59973;DHT22;55298;-36.624;-64.282;2023-05-28T10:20:47;3.20;73.80
59973;DHT22;55298;-36.624;-64.282;2023-05-28T10:23:16;3.10;74.40
59973;DHT22;55298;-36.624;-64.282;2023-05-28T10:25:45;3.20;75.20
59973;DHT22;55298;-36.624;-64.282;2023-05-28T10:28:16;3.20;75.10
59973;DHT22;55298;-36.624;-64.282;2023-05-28T10:30:44;3.30;74.60
59973;DHT22;55298;-36.624;-64.282;2023-05-28T10:33:16;3.30;72.90
59973;DHT22;55298;-36.624;-64.282;2023-05-28T10:35:53;3.30;73.40
59973;DHT22;55298;-36.624;-64.282;2023-05-28T10:38:22;3.40;73.30
59973;DHT22;55298;-36.624;-64.282;2023-05-28T10:40:50;3.30;73.80
59973;DHT22;55298;-36.624;-64.282;2023-05-28T10:46:25;3.40;72.90
59973;DHT22;55298;-36.624;-64.282;2023-05-28T10:49:13;3.40;72.50
59973;DHT22;55298;-36.624;-64.282;2023-05-28T10:52:01;3.40;73.10
59973;DHT22;55298;-36.624;-64.282;2023-05-28T10:54:43;3.50;73.80
59973;DHT22;55298;-36.624;-64.282;2023-05-28T10:57:17;3.50;73.30
59973;DHT22;55298;-36.624;-64.282;2023-05-28T10:59:57;3.60;73.50
59973;DHT22;55298;-36.624;-64.282;2023-05-28T11:02:27;3.60;73.20
59973;DHT22;55298;-36.624;-64.282;2023-05-28T11:04:58;3.80;73.10
59973;DHT22;55298;-36.624;-64.282;2023-05-28T11:07:32;3.80;72.70
59973;DHT22;55298;-36.624;-64.282;2023-05-28T11:10:04;3.90;72.30
59973;DHT22;55298;-36.624;-64.282;2023-05-28T11:12:36;3.90;72.10
59973;DHT22;55298;-36.624;-64.282;2023-05-28T11:15:07;3.90;72.00
59973;DHT22;55298;-36.624;-64.282;2023-05-28T11:17:40;3.80;71.30
59973;DHT22;55298;-36.624;-64.282;2023-05-28T11:20:25;3.80;72.00
59973;DHT22;55298;-36.624;-64.282;2023-05-28T11:22:54;3.80;71.80
59973;DHT22;55298;-36.624;-64.282;2023-05-28T11:25:24;3.80;72.50
59973;DHT22;55298;-36.624;-64.282;2023-05-28T11:27:53;3.90;72.40
59973;DHT22;55298;-36.624;-64.282;2023-05-28T11:30:25;3.90;72.20
59973;DHT22;55298;-36.624;-64.282;2023-05-28T11:32:54;3.90;72.00
59973;DHT22;55298;-36.624;-64.282;2023-05-28T11:35:23;4.00;72.10
59973;DHT22;55298;-36.624;-64.282;2023-05-28T11:37:51;4.00;72.00
59973;DHT22;55298;-36.624;-64.282;2023-05-28T11:40:22;4.00;72.00
59973;DHT22;55298;-36.624;-64.282;2023-05-28T11:42:52;4.20;71.10
59973;DHT22;55298;-36.624;-64.282;2023-05-28T11:45:27;3.90;71.40
59973;DHT22;55298;-36.624;-64.282;2023-05-28T11:47:55;4.20;71.00
59973;DHT22;55298;-36.624;-64.282;2023-05-28T11:50:23;4.10;71.10
59973;DHT22;55298;-36.624;-64.282;2023-05-28T11:52:51;4.10;71.70
59973;DHT22;55298;-36.624;-64.282;2023-05-28T11:55:19;4.20;71.70
59973;DHT22;55298;-36.624;-64.282;2023-05-28T11:57:54;5.00;70.80
59973;DHT22;55298;-36.624;-64.282;2023-05-28T12:00:35;5.70;68.30
59973;DHT22;55298;-36.624;-64.282;2023-05-28T12:03:04;6.20;65.10
59973;DHT22;55298;-36.624;-64.282;2023-05-28T12:05:39;6.40;64.00
59973;DHT22;55298;-36.624;-64.282;2023-05-28T12:08:09;6.80;63.10
59973;DHT22;55298;-36.624;-64.282;2023-05-28T12:10:37;6.80;61.60
59973;DHT22;55298;-36.624;-64.282;2023-05-28T12:13:06;6.20;62.30
59973;DHT22;55298;-36.624;-64.282;2023-05-28T12:15:34;5.60;64.10
59973;DHT22;55298;-36.624;-64.282;2023-05-28T12:18:02;5.30;66.00
59973;DHT22;55298;-36.624;-64.282;2023-05-28T12:20:34;5.10;67.30
59973;DHT22;55298;-36.624;-64.282;2023-05-28T12:23:10;5.00;68.30
59973;DHT22;55298;-36.624;-64.282;2023-05-28T12:25:47;4.90;69.20
59973;DHT22;55298;-36.624;-64.282;2023-05-28T12:28:17;4.80;70.00
59973;DHT22;55298;-36.624;-64.282;2023-05-28T12:30:47;5.30;70.00
59973;DHT22;55298;-36.624;-64.282;2023-05-28T12:33:17;6.20;67.70
59973;DHT22;55298;-36.624;-64.282;2023-05-28T12:35:46;6.40;64.50
59973;DHT22;55298;-36.624;-64.282;2023-05-28T12:38:14;5.90;65.20
59973;DHT22;55298;-36.624;-64.282;2023-05-28T12:40:42;5.80;66.00
59973;DHT22;55298;-36.624;-64.282;2023-05-28T12:43:10;5.70;67.30
59973;DHT22;55298;-36.624;-64.282;2023-05-28T12:45:38;5.70;68.20
59973;DHT22;55298;-36.624;-64.282;2023-05-28T12:48:06;6.20;67.50
59973;DHT22;55298;-36.624;-64.282;2023-05-28T12:50:35;6.90;63.90
59973;DHT22;55298;-36.624;-64.282;2023-05-28T12:53:03;7.70;61.30
59973;DHT22;55298;-36.624;-64.282;2023-05-28T12:55:32;8.30;59.40
59973;DHT22;55298;-36.624;-64.282;2023-05-28T12:58:00;9.10;57.10
59973;DHT22;55298;-36.624;-64.282;2023-05-28T13:00:28;9.90;55.60
59973;DHT22;55298;-36.624;-64.282;2023-05-28T13:02:56;10.80;53.50
59973;DHT22;55298;-36.624;-64.282;2023-05-28T13:05:24;11.50;48.70
59973;DHT22;55298;-36.624;-64.282;2023-05-28T13:07:52;11.70;47.70
59973;DHT22;55298;-36.624;-64.282;2023-05-28T13:10:20;11.60;48.10
59973;DHT22;55298;-36.624;-64.282;2023-05-28T13:12:48;12.20;48.70
59973;DHT22;55298;-36.624;-64.282;2023-05-28T13:15:16;12.60;46.30
59973;DHT22;55298;-36.624;-64.282;2023-05-28T13:17:44;13.00;46.20
59973;DHT22;55298;-36.624;-64.282;2023-05-28T13:20:12;13.40;45.50
59973;DHT22;55298;-36.624;-64.282;2023-05-28T13:22:41;13.30;45.10
59973;DHT22;55298;-36.624;-64.282;2023-05-28T13:25:10;13.10;45.80
59973;DHT22;55298;-36.624;-64.282;2023-05-28T13:27:39;12.90;45.70
59973;DHT22;55298;-36.624;-64.282;2023-05-28T13:30:09;12.40;46.60
59973;DHT22;55298;-36.624;-64.282;2023-05-28T13:32:37;12.40;47.60
59973;DHT22;55298;-36.624;-64.282;2023-05-28T13:35:05;12.20;47.50
59973;DHT22;55298;-36.624;-64.282;2023-05-28T13:37:33;11.90;48.50
59973;DHT22;55298;-36.624;-64.282;2023-05-28T13:40:01;12.00;48.60
59973;DHT22;55298;-36.624;-64.282;2023-05-28T13:42:34;12.10;47.80
59973;DHT22;55298;-36.624;-64.282;2023-05-28T13:45:02;12.10;48.60
59973;DHT22;55298;-36.624;-64.282;2023-05-28T13:47:30;11.70;48.60
59973;DHT22;55298;-36.624;-64.282;2023-05-28T13:50:00;11.40;49.30
59973;DHT22;55298;-36.624;-64.282;2023-05-28T13:52:28;11.10;50.20
59973;DHT22;55298;-36.624;-64.282;2023-05-28T13:54:56;10.80;51.30
59973;DHT22;55298;-36.624;-64.282;2023-05-28T13:57:24;10.30;51.90
59973;DHT22;55298;-36.624;-64.282;2023-05-28T13:59:52;10.10;52.70
59973;DHT22;55298;-36.624;-64.282;2023-05-28T14:02:19;10.20;53.20
59973;DHT22;55298;-36.624;-64.282;2023-05-28T14:04:48;10.00;53.30
59973;DHT22;55298;-36.624;-64.282;2023-05-28T14:07:16;9.90;53.70
59973;DHT22;55298;-36.624;-64.282;2023-05-28T14:09:45;9.80;54.00
59973;DHT22;55298;-36.624;-64.282;2023-05-28T14:12:13;9.70;54.10
59973;DHT22;55298;-36.624;-64.282;2023-05-28T14:14:41;9.70;54.20
59973;DHT22;55298;-36.624;-64.282;2023-05-28T14:17:11;9.90;54.40
59973;DHT22;55298;-36.624;-64.282;2023-05-28T14:19:41;9.80;54.10
59973;DHT22;55298;-36.624;-64.282;2023-05-28T14:22:09;9.70;54.40
59973;DHT22;55298;-36.624;-64.282;2023-05-28T14:24:39;9.70;54.60
59973;DHT22;55298;-36.624;-64.282;2023-05-28T14:27:07;10.00;54.50
59973;DHT22;55298;-36.624;-64.282;2023-05-28T14:29:35;10.20;54.40
59973;DHT22;55298;-36.624;-64.282;2023-05-28T14:32:06;10.30;54.30
59973;DHT22;55298;-36.624;-64.282;2023-05-28T14:34:34;10.50;54.30
59973;DHT22;55298;-36.624;-64.282;2023-05-28T14:37:02;10.90;54.20
59973;DHT22;55298;-36.624;-64.282;2023-05-28T14:39:30;11.60;52.90
59973;DHT22;55298;-36.624;-64.282;2023-05-28T14:41:58;12.30;51.40
59973;DHT22;55298;-36.624;-64.282;2023-05-28T14:44:26;13.00;47.50
59973;DHT22;55298;-36.624;-64.282;2023-05-28T14:46:55;13.00;47.90
59973;DHT22;55298;-36.624;-64.282;2023-05-28T14:49:23;13.00;48.00
59973;DHT22;55298;-36.624;-64.282;2023-05-28T14:51:54;12.80;48.30
59973;DHT22;55298;-36.624;-64.282;2023-05-28T14:54:23;12.40;48.70
59973;DHT22;55298;-36.624;-64.282;2023-05-28T14:56:51;12.00;49.70
59973;DHT22;55298;-36.624;-64.282;2023-05-28T14:59:19;11.60;51.10
59973;DHT22;55298;-36.624;-64.282;2023-05-28T15:01:47;11.40;52.10
59973;DHT22;55298;-36.624;-64.282;2023-05-28T15:04:16;11.20;53.10
59973;DHT22;55298;-36.624;-64.282;2023-05-28T15:06:43;11.10;53.10
59973;DHT22;55298;-36.624;-64.282;2023-05-28T15:09:11;11.20;54.00
59973;DHT22;55298;-36.624;-64.282;2023-05-28T15:11:39;11.20;52.60
59973;DHT22;55298;-36.624;-64.282;2023-05-28T15:14:07;11.10;53.10
59973;DHT22;55298;-36.624;-64.282;2023-05-28T15:16:35;11.20;53.10
59973;DHT22;55298;-36.624;-64.282;2023-05-28T15:19:03;11.30;53.50
59973;DHT22;55298;-36.624;-64.282;2023-05-28T15:21:30;11.30;53.20
59973;DHT22;55298;-36.624;-64.282;2023-05-28T15:23:58;11.10;52.90
59973;DHT22;55298;-36.624;-64.282;2023-05-28T15:26:28;11.40;53.10
59973;DHT22;55298;-36.624;-64.282;2023-05-28T15:28:56;11.40;53.30
59973;DHT22;55298;-36.624;-64.282;2023-05-28T15:31:24;11.50;53.10
59973;DHT22;55298;-36.624;-64.282;2023-05-28T15:33:53;11.60;53.40
59973;DHT22;55298;-36.624;-64.282;2023-05-28T15:36:21;11.70;52.80
59973;DHT22;55298;-36.624;-64.282;2023-05-28T15:38:49;11.80;52.60
59973;DHT22;55298;-36.624;-64.282;2023-05-28T15:41:19;12.00;52.40
59973;DHT22;55298;-36.624;-64.282;2023-05-28T15:43:47;12.30;51.80
59973;DHT22;55298;-36.624;-64.282;2023-05-28T15:46:15;12.90;50.00
59973;DHT22;55298;-36.624;-64.282;2023-05-28T15:48:43;13.60;50.70
59973;DHT22;55298;-36.624;-64.282;2023-05-28T15:51:12;13.10;49.80
59973;DHT22;55298;-36.624;-64.282;2023-05-28T15:53:40;13.10;49.60
59973;DHT22;55298;-36.624;-64.282;2023-05-28T15:56:09;13.00;50.10
59973;DHT22;55298;-36.624;-64.282;2023-05-28T15:58:37;13.30;50.90
59973;DHT22;55298;-36.624;-64.282;2023-05-28T16:01:08;12.90;50.50
59973;DHT22;55298;-36.624;-64.282;2023-05-28T16:03:39;16.80;52.70